Terminal Aerodrome Forecast
Issued by NWS

Home | Current Version | Previous Version | Text Only | Print | Product List | Glossary On
Versions: 1 2 3 4 5 6 7 8 9 10 11 12 13 14 15 16 17 18 19 20 21 22 23 24 25 26 27 28 29 30 31 32 33 34 35 36 37 38 39 40
000
FTUS43 KGRB 142329
TAFATW
TAF
KATW 142329Z 1500/1524 18008KT P6SM SCT018 OVC025
      TEMPO 1500/1504 5SM -RADZ BR BKN018
     FM150400 18009KT 5SM -RADZ BR OVC015
     FM150600 19010KT 4SM -RA BR OVC020
     FM150900 19010KT 3SM -RA BR OVC010
     FM151200 20009KT 2SM -SHRA OVC008
     FM151500 22010KT P6SM VCSH OVC008
     FM151700 26011G19KT P6SM BKN008 BKN020
     FM152100 28012G22KT P6SM SCT010 BKN035=

USA.gov is the U.S. government's official web portal to all federal, state and local government web resources and services.